Weather History for La Porte, IN

Change the Weather History Date:

Monday, April 28, 2014

  Actual Average (KVPZ) Record (KVPZ)
Temperature  
Mean Temperature 48 °F 54 °F  
Max Temperature 53 °F 65 °F 79 °F (2004)
Min Temperature 44 °F 43 °F 32 °F (2010)
Degree Days  
Heating Degree Days 17 12  
Month to date heating degree days 459  
Since 1 July heating degree days 6036  
Cooling Degree Days 0 0  
Month to date cooling degree days 0  
Year to date cooling degree days 0  
Moisture  
Dew Point 40 °F    
Average Humidity 74    
Maximum Humidity 94    
Minimum Humidity 45    
Precipitation  
Precipitation 0.08 in 0.14 in 0.27 in (2008)
Month to date precipitation 3.19  
Year to date precipitation 8.84  
Sea Level Pressure  
Sea Level Pressure 29.72 in    
Wind  
Wind Speed 19 mph (ESE)    
Max Wind Speed 25 mph    
Max Gust Speed 31 mph    
Visibility 9 miles    
Events Rain    
T = Trace of Precipitation, MM = Missing Value Source: NWS Daily Summary

Daily Weather History Graph

Daily Weather History Graph

Search for Another Location

Airport:

Trip Planner

Search our weather history database for the weather conditions in past years. The results will help you decide how hot, cold, wet, or windy it might be!

Date:

Astronomy

Apr. 28, 2014 Rise Set
Actual Time 5:47 AM CDT 7:41 PM CDT
Civil Twilight 5:17 AM CDT 8:11 PM CDT
Nautical Twilight 4:41 AM CDT 8:48 PM CDT
Astronomical Twilight 4:02 AM CDT 9:27 PM CDT
Moon 5:26 AM CDT (4/28) 7:18 PM CDT (4/28)
Length of Visible Light 14h 53m
Length of Day
13h 53m
Waning Crescent, 0% of the Moon is Illuminated
Apr 28
Waning Crescent
Apr 29
New
May 6
First Quarter
May 14
Full
May 21
Last Quarter

Hourly Weather History & Observations

Time (CDT) Temp. Windchill Dew Point Humidity Pressure Visibility Wind Dir Wind Speed Gust Speed Precip Events Conditions
12:15 AM 48.4 °F - 27.7 °F 45% 29.90 in 10.0 mi East 18.4 mph 24.2 mph N/A   Overcast
12:35 AM 48.2 °F - 27.7 °F 45% 29.91 in 10.0 mi ESE 16.1 mph 26.5 mph N/A   Overcast
12:55 AM 47.8 °F - 27.7 °F 46% 29.90 in 10.0 mi ESE 20.7 mph 25.3 mph N/A   Mostly Cloudy
1:15 AM 48.2 °F - 28.2 °F 46% 29.89 in 10.0 mi East 20.7 mph 26.5 mph N/A   Mostly Cloudy
1:35 AM 48.2 °F - 28.9 °F 47% 29.88 in 10.0 mi East 20.7 mph 27.6 mph N/A   Overcast
1:55 AM 48.2 °F - 29.5 °F 48% 29.87 in 10.0 mi East 17.3 mph 28.8 mph N/A   Overcast
2:15 AM 48.2 °F - 30.0 °F 49% 29.85 in 10.0 mi ESE 19.6 mph 27.6 mph N/A   Mostly Cloudy
2:35 AM 48.2 °F - 30.2 °F 50% 29.83 in 10.0 mi East 21.9 mph 27.6 mph N/A   Overcast
2:55 AM 48.2 °F - 30.2 °F 50% 29.82 in 10.0 mi East 21.9 mph 27.6 mph N/A   Overcast
3:15 AM 48.4 °F - 30.2 °F 49% 29.82 in 10.0 mi East 19.6 mph 28.8 mph N/A   Overcast
3:35 AM 48.6 °F - 30.2 °F 49% 29.81 in 10.0 mi East 23.0 mph 27.6 mph N/A   Overcast
3:55 AM 48.7 °F - 30.2 °F 49% 29.79 in 10.0 mi East 19.6 mph 27.6 mph N/A   Overcast
4:15 AM 48.6 °F - 30.2 °F 49% 29.79 in 10.0 mi East 19.6 mph 28.8 mph N/A   Overcast
4:35 AM 48.6 °F - 30.4 °F 50% 29.79 in 10.0 mi East 13.8 mph - N/A   Overcast
4:55 AM 48.4 °F - 31.6 °F 52% 29.79 in 10.0 mi East 16.1 mph 26.5 mph N/A   Overcast
5:15 AM 46.4 °F 39.8 °F 34.7 °F 64% 29.79 in 10.0 mi East 16.1 mph 21.9 mph N/A Rain Rain
5:35 AM 46.6 °F - 34.5 °F 63% 29.78 in 10.0 mi East 17.3 mph 24.2 mph N/A   Overcast
5:55 AM 46.6 °F - 35.6 °F 66% 29.78 in 10.0 mi East 16.1 mph - N/A   Drizzle
6:15 AM 46.4 °F 40.1 °F 36.1 °F 67% 29.79 in 10.0 mi East 15.0 mph 18.4 mph N/A   Light Drizzle
6:35 AM 45.9 °F 39.1 °F 37.0 °F 71% 29.78 in 7.0 mi East 16.1 mph 23.0 mph N/A Rain Rain
6:55 AM 44.8 °F 38.0 °F 38.5 °F 79% 29.78 in 5.0 mi East 15.0 mph - 0.02 in Rain Rain
7:15 AM 44.6 °F 38.4 °F 39.2 °F 81% 29.79 in 7.0 mi ESE 12.7 mph 21.9 mph 0.03 in Rain Light Rain
7:35 AM 44.6 °F 37.4 °F 39.2 °F 81% 29.78 in 5.0 mi East 16.1 mph - 0.04 in Rain Light Rain
7:55 AM 45.0 °F 38.5 °F 39.2 °F 80% 29.78 in 7.0 mi East 13.8 mph - 0.04 in Rain Light Rain
8:15 AM 45.0 °F 38.2 °F 39.4 °F 81% 29.77 in 7.0 mi East 15.0 mph 24.2 mph 0.01 in Rain Light Rain
8:35 AM 45.1 °F 37.9 °F 40.1 °F 82% 29.77 in 7.0 mi East 17.3 mph - 0.01 in Rain Light Rain
8:55 AM 45.1 °F 37.3 °F 40.1 °F 82% 29.77 in 10.0 mi East 19.6 mph 24.2 mph 0.01 in Rain Light Rain
9:15 AM 45.5 °F 37.3 °F 40.3 °F 82% 29.75 in 10.0 mi East 21.9 mph 26.5 mph N/A   Drizzle
9:55 AM 46.0 °F 37.8 °F 41.0 °F 83% 29.67 in 10.0 mi East 23.0 mph 29.9 mph N/A   Overcast
10:15 AM 46.6 °F - 41.0 °F 81% 29.69 in 10.0 mi East 23.0 mph 28.8 mph N/A   Overcast
10:35 AM 47.3 °F - 41.0 °F 79% 29.69 in 10.0 mi East 21.9 mph 29.9 mph N/A   Overcast
10:55 AM 47.7 °F - 41.0 °F 78% 29.70 in 10.0 mi East 25.3 mph 29.9 mph N/A   Overcast
11:15 AM 47.8 °F - 41.2 °F 78% 29.72 in 10.0 mi ESE 21.9 mph 31.1 mph N/A   Overcast
11:35 AM 48.2 °F - 41.9 °F 79% 29.72 in 10.0 mi ESE 19.6 mph 25.3 mph N/A   Overcast
11:55 AM 48.2 °F - 41.7 °F 78% 29.72 in 10.0 mi East 19.6 mph - N/A   Overcast
12:15 PM 48.0 °F - 42.1 °F 80% 29.72 in 2.5 mi ESE 20.7 mph 28.8 mph N/A Rain Rain
12:35 PM 46.8 °F - 43.7 °F 89% 29.72 in 1.8 mi ESE 18.4 mph 24.2 mph N/A Rain Light Rain
12:55 PM 47.1 °F - 44.4 °F 90% 29.71 in 10.0 mi East 19.6 mph 26.5 mph N/A   Overcast
1:15 PM 48.4 °F - 44.8 °F 87% 29.71 in 10.0 mi ESE 21.9 mph - N/A   Overcast
1:35 PM 50.2 °F - 45.3 °F 83% 29.70 in 10.0 mi ESE 25.3 mph 28.8 mph N/A   Overcast
1:55 PM 50.5 °F - 45.1 °F 82% 29.70 in 10.0 mi ESE 20.7 mph 28.8 mph N/A   Overcast
2:15 PM 51.1 °F - 45.0 °F 80% 29.72 in 10.0 mi ESE 23.0 mph 28.8 mph N/A   Overcast
2:55 PM 52.0 °F - 46.2 °F 81% 29.72 in 10.0 mi ESE 18.4 mph 21.9 mph N/A   Overcast
3:35 PM 52.7 °F - 46.4 °F 79% 29.68 in 10.0 mi ESE 25.3 mph 31.1 mph N/A   Overcast
3:55 PM 52.9 °F - 46.8 °F 80% 29.66 in 10.0 mi ESE 24.2 mph 28.8 mph N/A   Overcast
4:15 PM 52.7 °F - 46.2 °F 79% 29.66 in 10.0 mi East 20.7 mph 27.6 mph N/A   Overcast
4:35 PM 51.6 °F - 46.0 °F 81% 29.65 in 10.0 mi ESE 19.6 mph 26.5 mph N/A   Overcast
4:55 PM 50.9 °F - 45.5 °F 82% 29.64 in 10.0 mi East 24.2 mph 29.9 mph N/A   Overcast
5:15 PM 50.2 °F - 45.1 °F 83% 29.63 in 7.0 mi East 19.6 mph 28.8 mph N/A   Overcast
5:35 PM 50.5 °F - 44.8 °F 81% 29.63 in 10.0 mi East 20.7 mph 25.3 mph N/A   Overcast
5:55 PM 50.2 °F - 44.8 °F 82% 29.62 in 10.0 mi East 20.7 mph 25.3 mph N/A   Overcast
6:15 PM 50.2 °F - 44.6 °F 81% 29.62 in 10.0 mi East 19.6 mph 28.8 mph N/A   Overcast
6:35 PM 50.0 °F - 44.6 °F 82% 29.64 in 10.0 mi East 19.6 mph 26.5 mph N/A   Overcast
6:55 PM 49.8 °F - 44.2 °F 81% 29.64 in 10.0 mi East 21.9 mph 27.6 mph N/A   Overcast
7:15 PM 49.6 °F - 44.1 °F 81% 29.63 in 10.0 mi East 20.7 mph 29.9 mph N/A   Overcast
7:35 PM 49.3 °F - 43.9 °F 82% 29.62 in 10.0 mi East 21.9 mph 28.8 mph N/A   Overcast
7:55 PM 49.1 °F - 43.7 °F 82% 29.62 in 10.0 mi East 17.3 mph 26.5 mph N/A   Overcast
8:15 PM 49.1 °F - 43.7 °F 82% 29.62 in 10.0 mi East 20.7 mph 25.3 mph N/A   Overcast
8:35 PM 48.9 °F - 43.5 °F 82% 29.62 in 10.0 mi East 15.0 mph 21.9 mph N/A   Overcast
8:55 PM 48.7 °F - 43.3 °F 82% 29.63 in 10.0 mi East 17.3 mph 27.6 mph N/A   Overcast
9:15 PM 48.6 °F - 43.3 °F 82% 29.62 in 10.0 mi East 18.4 mph 23.0 mph N/A   Overcast
9:35 PM 48.2 °F - 43.0 °F 82% 29.63 in 10.0 mi East 20.7 mph 25.3 mph N/A   Overcast
9:55 PM 48.2 °F - 43.0 °F 82% 29.62 in 7.0 mi ESE 20.7 mph 31.1 mph N/A   Overcast
10:15 PM 47.3 °F - 43.7 °F 87% 29.62 in 7.0 mi East 19.6 mph 25.3 mph 0.01 in Rain Light Rain
10:35 PM 47.3 °F - 43.9 °F 88% 29.62 in 7.0 mi East 16.1 mph 23.0 mph 0.01 in   Overcast
10:55 PM 47.3 °F - 44.2 °F 89% 29.61 in 5.0 mi ESE 19.6 mph 25.3 mph 0.01 in   Overcast
11:15 PM 46.9 °F - 44.8 °F 92% 29.60 in 4.0 mi East 16.1 mph 21.9 mph N/A Rain Light Rain
11:35 PM 47.3 °F - 45.5 °F 93% 29.62 in 4.0 mi SSW 4.6 mph - N/A   Overcast
11:55 PM 47.5 °F - 45.9 °F 94% 29.60 in 4.0 mi East 8.1 mph - N/A   Overcast